Cobb County-Mc Collum Field
KRYY : now visible

Airfield :











YOU CAN JOIN US ON...

 
LOGIN :

Register | Disclaimer

   EN    FR    IT 

 









Legend :    VFR   Marginal VFR   IFR   Intensive IFR   Very Intensive IFR
Visi :
Ceiling :
>= 8 km
>= 3000ft
5 to 8 km
1000 to 3000 ft
1500m to 5 km
500 to 1000 ft
800 to 1500m
200 to 500 ft
< 800m
< 200 ft
Symbols :   Thunderstorms  Fog  Heavy snow  Heavy precipitations  Wind > 20 kt







- Airport Elevation : 1040 ft


KRYY - Cobb County-Mc Collum Field

CURRENT METAR :
  • 170750Z AUTO 00000KT 10SM CLR 22/19 A3002 RMK AO2 SLP885 T02170189 $

EXPIRED METARs :
  • 170650Z AUTO 00000KT 10SM CLR 22/18 A3003 RMK AO2 SLP889 T02170183 $
  • 170550Z AUTO 00000KT 10SM CLR 23/19 A3004 RMK AO2 SLP891 T02280189 10294 20222 58002 $

TAF KRYY
Valid from the 17 at 06:00 until the 18 at 06:00 UTC


170520Z 1706/1806 00000KT P6SM SKC
FM171500 33005KT P6SM SKC
FM171800 32007KT P6SM SCT070 SCT250
FM180100 VRB03KT P6SM SCT080 SCT250
No reported NOTAMs for that airfield.



MET'MAP, your aeronautical weather chart ! - Copyright ORBIFLY December 2007 - Disclaimer

ORBIFLY MET'MAP TEAM :

Programming & Development : Alexandra Zaïnal
Concept & Development : Baudouin d'Aumeries
Co-Development & Prog : Marc-Olivier Méhu
Technical & hardware support : Manuel Goepfert

Contact : metmap@orbifly.com




SOURCES & CREDITS :

   NOAA       Earth
Advisory